sensor_id;sensor_type;location;lat;lon;timestamp;P1;durP1;ratioP1;P2;durP2;ratioP2
25913;SDS011;13718;50.922;5.346;2022-10-16T00:01:12;3.45;;;0.95;;
25913;SDS011;13718;50.922;5.346;2022-10-16T00:03:42;6.07;;;1.50;;
25913;SDS011;13718;50.922;5.346;2022-10-16T00:06:09;4.40;;;1.13;;
25913;SDS011;13718;50.922;5.346;2022-10-16T00:08:35;1.23;;;0.82;;
25913;SDS011;13718;50.922;5.346;2022-10-16T00:11:03;7.55;;;0.93;;
25913;SDS011;13718;50.922;5.346;2022-10-16T00:13:34;2.55;;;1.02;;
25913;SDS011;13718;50.922;5.346;2022-10-16T00:16:01;2.75;;;0.80;;
25913;SDS011;13718;50.922;5.346;2022-10-16T00:18:28;2.85;;;1.00;;
25913;SDS011;13718;50.922;5.346;2022-10-16T00:20:54;1.83;;;0.70;;
25913;SDS011;13718;50.922;5.346;2022-10-16T00:23:21;5.20;;;1.13;;
25913;SDS011;13718;50.922;5.346;2022-10-16T00:25:56;4.22;;;1.00;;
25913;SDS011;13718;50.922;5.346;2022-10-16T00:28:23;3.25;;;0.80;;
25913;SDS011;13718;50.922;5.346;2022-10-16T00:30:49;2.05;;;0.90;;
25913;SDS011;13718;50.922;5.346;2022-10-16T00:33:15;3.35;;;0.82;;
25913;SDS011;13718;50.922;5.346;2022-10-16T00:35:40;2.17;;;0.80;;
25913;SDS011;13718;50.922;5.346;2022-10-16T00:38:06;2.75;;;0.95;;
25913;SDS011;13718;50.922;5.346;2022-10-16T00:40:32;1.70;;;0.90;;
25913;SDS011;13718;50.922;5.346;2022-10-16T00:42:58;1.17;;;0.80;;
25913;SDS011;13718;50.922;5.346;2022-10-16T00:45:23;1.35;;;0.75;;
25913;SDS011;13718;50.922;5.346;2022-10-16T00:47:49;2.75;;;0.70;;
25913;SDS011;13718;50.922;5.346;2022-10-16T00:52:52;2.05;;;0.60;;
25913;SDS011;13718;50.922;5.346;2022-10-16T00:55:18;2.30;;;0.90;;
25913;SDS011;13718;50.922;5.346;2022-10-16T00:57:46;2.72;;;1.00;;
25913;SDS011;13718;50.922;5.346;2022-10-16T01:00:14;1.40;;;0.57;;
25913;SDS011;13718;50.922;5.346;2022-10-16T01:02:42;4.88;;;0.85;;
25913;SDS011;13718;50.922;5.346;2022-10-16T01:05:08;1.92;;;0.70;;
25913;SDS011;13718;50.922;5.346;2022-10-16T01:13:07;3.58;;;1.00;;
25913;SDS011;13718;50.922;5.346;2022-10-16T01:16:00;3.33;;;0.85;;
25913;SDS011;13718;50.922;5.346;2022-10-16T01:18:34;2.85;;;0.75;;
25913;SDS011;13718;50.922;5.346;2022-10-16T01:21:29;1.95;;;0.90;;
25913;SDS011;13718;50.922;5.346;2022-10-16T01:29:50;1.65;;;0.98;;
25913;SDS011;13718;50.922;5.346;2022-10-16T01:34:58;5.45;;;0.98;;
25913;SDS011;13718;50.922;5.346;2022-10-16T01:37:38;2.38;;;0.90;;
25913;SDS011;13718;50.922;5.346;2022-10-16T01:40:12;1.10;;;0.70;;
25913;SDS011;13718;50.922;5.346;2022-10-16T01:42:42;4.80;;;1.00;;
25913;SDS011;13718;50.922;5.346;2022-10-16T01:45:11;1.83;;;0.95;;
25913;SDS011;13718;50.922;5.346;2022-10-16T01:47:39;1.63;;;0.82;;
25913;SDS011;13718;50.922;5.346;2022-10-16T01:50:06;2.25;;;0.77;;
25913;SDS011;13718;50.922;5.346;2022-10-16T01:52:37;4.13;;;1.13;;
25913;SDS011;13718;50.922;5.346;2022-10-16T01:57:33;2.33;;;0.95;;
25913;SDS011;13718;50.922;5.346;2022-10-16T02:00:05;2.35;;;1.00;;
25913;SDS011;13718;50.922;5.346;2022-10-16T02:02:33;4.40;;;0.88;;
25913;SDS011;13718;50.922;5.346;2022-10-16T02:05:04;2.88;;;1.00;;
25913;SDS011;13718;50.922;5.346;2022-10-16T02:07:41;5.03;;;1.10;;
25913;SDS011;13718;50.922;5.346;2022-10-16T02:10:07;5.65;;;1.10;;
25913;SDS011;13718;50.922;5.346;2022-10-16T02:12:33;4.22;;;0.90;;
25913;SDS011;13718;50.922;5.346;2022-10-16T02:15:04;4.30;;;0.90;;
25913;SDS011;13718;50.922;5.346;2022-10-16T02:17:31;2.88;;;0.80;;
25913;SDS011;13718;50.922;5.346;2022-10-16T02:19:57;1.33;;;0.70;;
25913;SDS011;13718;50.922;5.346;2022-10-16T02:24:59;6.35;;;1.15;;
25913;SDS011;13718;50.922;5.346;2022-10-16T02:27:45;2.05;;;1.05;;
25913;SDS011;13718;50.922;5.346;2022-10-16T02:32:51;3.85;;;1.02;;
25913;SDS011;13718;50.922;5.346;2022-10-16T02:35:18;3.03;;;1.30;;
25913;SDS011;13718;50.922;5.346;2022-10-16T02:37:47;2.05;;;0.90;;
25913;SDS011;13718;50.922;5.346;2022-10-16T02:40:15;3.92;;;0.98;;
25913;SDS011;13718;50.922;5.346;2022-10-16T02:42:41;2.13;;;1.00;;
25913;SDS011;13718;50.922;5.346;2022-10-16T02:45:08;3.42;;;0.90;;
25913;SDS011;13718;50.922;5.346;2022-10-16T02:47:35;2.58;;;1.00;;
25913;SDS011;13718;50.922;5.346;2022-10-16T02:50:01;2.92;;;0.90;;
25913;SDS011;13718;50.922;5.346;2022-10-16T02:52:27;2.58;;;0.95;;
25913;SDS011;13718;50.922;5.346;2022-10-16T02:54:53;4.43;;;1.30;;
25913;SDS011;13718;50.922;5.346;2022-10-16T02:57:18;6.85;;;1.00;;
25913;SDS011;13718;50.922;5.346;2022-10-16T02:59:44;1.85;;;0.88;;
25913;SDS011;13718;50.922;5.346;2022-10-16T03:02:10;1.88;;;1.02;;
25913;SDS011;13718;50.922;5.346;2022-10-16T03:04:36;4.85;;;0.90;;
25913;SDS011;13718;50.922;5.346;2022-10-16T03:07:02;3.58;;;1.00;;
25913;SDS011;13718;50.922;5.346;2022-10-16T03:09:27;3.38;;;1.05;;
25913;SDS011;13718;50.922;5.346;2022-10-16T03:11:53;3.17;;;1.02;;
25913;SDS011;13718;50.922;5.346;2022-10-16T03:14:18;5.43;;;1.00;;
25913;SDS011;13718;50.922;5.346;2022-10-16T03:16:44;3.28;;;1.13;;
25913;SDS011;13718;50.922;5.346;2022-10-16T03:19:09;1.50;;;0.85;;
25913;SDS011;13718;50.922;5.346;2022-10-16T03:21:35;3.05;;;1.27;;
25913;SDS011;13718;50.922;5.346;2022-10-16T03:24:01;4.20;;;1.10;;
25913;SDS011;13718;50.922;5.346;2022-10-16T03:26:26;7.10;;;1.15;;
25913;SDS011;13718;50.922;5.346;2022-10-16T03:28:52;2.95;;;1.40;;
25913;SDS011;13718;50.922;5.346;2022-10-16T03:31:17;1.92;;;1.30;;
25913;SDS011;13718;50.922;5.346;2022-10-16T03:33:43;2.72;;;0.93;;
25913;SDS011;13718;50.922;5.346;2022-10-16T03:36:08;4.03;;;1.27;;
25913;SDS011;13718;50.922;5.346;2022-10-16T03:38:34;3.20;;;1.10;;
25913;SDS011;13718;50.922;5.346;2022-10-16T03:41:00;2.85;;;1.25;;
25913;SDS011;13718;50.922;5.346;2022-10-16T03:43:25;3.45;;;1.00;;
25913;SDS011;13718;50.922;5.346;2022-10-16T03:45:51;3.35;;;1.20;;
25913;SDS011;13718;50.922;5.346;2022-10-16T03:48:17;4.43;;;1.10;;
25913;SDS011;13718;50.922;5.346;2022-10-16T03:50:43;2.63;;;0.82;;
25913;SDS011;13718;50.922;5.346;2022-10-16T03:53:09;3.85;;;1.23;;
25913;SDS011;13718;50.922;5.346;2022-10-16T03:55:35;2.83;;;1.10;;
25913;SDS011;13718;50.922;5.346;2022-10-16T03:58:00;3.20;;;1.30;;
25913;SDS011;13718;50.922;5.346;2022-10-16T04:00:26;2.58;;;1.30;;
25913;SDS011;13718;50.922;5.346;2022-10-16T04:02:52;3.08;;;1.40;;
25913;SDS011;13718;50.922;5.346;2022-10-16T04:05:18;2.65;;;1.33;;
25913;SDS011;13718;50.922;5.346;2022-10-16T04:07:43;3.65;;;1.27;;
25913;SDS011;13718;50.922;5.346;2022-10-16T04:10:09;3.47;;;1.50;;
25913;SDS011;13718;50.922;5.346;2022-10-16T04:12:35;4.38;;;1.45;;
25913;SDS011;13718;50.922;5.346;2022-10-16T04:15:00;2.72;;;1.42;;
25913;SDS011;13718;50.922;5.346;2022-10-16T04:17:26;4.35;;;1.63;;
25913;SDS011;13718;50.922;5.346;2022-10-16T04:19:51;2.30;;;1.33;;
25913;SDS011;13718;50.922;5.346;2022-10-16T04:22:17;5.70;;;1.40;;
25913;SDS011;13718;50.922;5.346;2022-10-16T04:24:43;5.35;;;1.80;;
25913;SDS011;13718;50.922;5.346;2022-10-16T04:27:08;4.90;;;1.90;;
25913;SDS011;13718;50.922;5.346;2022-10-16T04:29:34;4.10;;;1.52;;
25913;SDS011;13718;50.922;5.346;2022-10-16T04:31:59;5.13;;;1.55;;
25913;SDS011;13718;50.922;5.346;2022-10-16T04:34:25;5.32;;;1.90;;
25913;SDS011;13718;50.922;5.346;2022-10-16T04:36:50;4.50;;;1.90;;
25913;SDS011;13718;50.922;5.346;2022-10-16T04:39:16;4.07;;;2.17;;
25913;SDS011;13718;50.922;5.346;2022-10-16T04:41:42;3.28;;;1.80;;
25913;SDS011;13718;50.922;5.346;2022-10-16T04:44:07;7.70;;;2.60;;
25913;SDS011;13718;50.922;5.346;2022-10-16T04:46:33;4.90;;;2.05;;
25913;SDS011;13718;50.922;5.346;2022-10-16T04:48:59;6.63;;;2.17;;
25913;SDS011;13718;50.922;5.346;2022-10-16T04:51:24;3.80;;;2.10;;
25913;SDS011;13718;50.922;5.346;2022-10-16T04:53:51;6.22;;;2.88;;
25913;SDS011;13718;50.922;5.346;2022-10-16T04:56:16;4.78;;;2.40;;
25913;SDS011;13718;50.922;5.346;2022-10-16T04:58:42;4.57;;;2.55;;
25913;SDS011;13718;50.922;5.346;2022-10-16T05:01:08;5.60;;;2.67;;
25913;SDS011;13718;50.922;5.346;2022-10-16T05:03:33;5.20;;;2.78;;
25913;SDS011;13718;50.922;5.346;2022-10-16T05:05:59;5.65;;;2.40;;
25913;SDS011;13718;50.922;5.346;2022-10-16T05:08:25;4.93;;;2.70;;
25913;SDS011;13718;50.922;5.346;2022-10-16T05:10:50;5.28;;;2.40;;
25913;SDS011;13718;50.922;5.346;2022-10-16T05:13:16;7.60;;;2.70;;
25913;SDS011;13718;50.922;5.346;2022-10-16T05:15:41;5.53;;;2.40;;
25913;SDS011;13718;50.922;5.346;2022-10-16T05:18:08;8.38;;;3.03;;
25913;SDS011;13718;50.922;5.346;2022-10-16T05:20:33;6.25;;;2.60;;
25913;SDS011;13718;50.922;5.346;2022-10-16T05:22:59;5.50;;;2.22;;
25913;SDS011;13718;50.922;5.346;2022-10-16T05:25:25;7.03;;;2.70;;
25913;SDS011;13718;50.922;5.346;2022-10-16T05:27:50;4.07;;;2.25;;
25913;SDS011;13718;50.922;5.346;2022-10-16T05:30:16;5.53;;;2.85;;
25913;SDS011;13718;50.922;5.346;2022-10-16T05:32:46;8.88;;;2.78;;
25913;SDS011;13718;50.922;5.346;2022-10-16T05:35:16;5.68;;;2.95;;
25913;SDS011;13718;50.922;5.346;2022-10-16T05:37:42;7.70;;;2.90;;
25913;SDS011;13718;50.922;5.346;2022-10-16T05:40:08;6.20;;;2.72;;
25913;SDS011;13718;50.922;5.346;2022-10-16T05:42:35;7.82;;;2.65;;
25913;SDS011;13718;50.922;5.346;2022-10-16T05:45:00;5.55;;;2.38;;
25913;SDS011;13718;50.922;5.346;2022-10-16T05:47:26;6.18;;;2.95;;
25913;SDS011;13718;50.922;5.346;2022-10-16T05:49:52;8.48;;;3.00;;
25913;SDS011;13718;50.922;5.346;2022-10-16T05:52:18;6.25;;;3.22;;
25913;SDS011;13718;50.922;5.346;2022-10-16T05:54:43;5.72;;;3.00;;
25913;SDS011;13718;50.922;5.346;2022-10-16T05:57:09;6.30;;;3.20;;
25913;SDS011;13718;50.922;5.346;2022-10-16T05:59:35;8.02;;;3.17;;
25913;SDS011;13718;50.922;5.346;2022-10-16T06:02:00;7.03;;;3.25;;
25913;SDS011;13718;50.922;5.346;2022-10-16T06:04:26;9.80;;;3.03;;
25913;SDS011;13718;50.922;5.346;2022-10-16T06:06:51;7.97;;;3.72;;
25913;SDS011;13718;50.922;5.346;2022-10-16T06:09:17;6.65;;;3.35;;
25913;SDS011;13718;50.922;5.346;2022-10-16T06:11:43;14.45;;;3.92;;
25913;SDS011;13718;50.922;5.346;2022-10-16T06:14:08;12.40;;;4.20;;
25913;SDS011;13718;50.922;5.346;2022-10-16T06:16:35;9.77;;;3.95;;
25913;SDS011;13718;50.922;5.346;2022-10-16T06:19:02;8.98;;;3.95;;
25913;SDS011;13718;50.922;5.346;2022-10-16T06:21:32;10.15;;;3.67;;
25913;SDS011;13718;50.922;5.346;2022-10-16T06:23:57;7.03;;;3.15;;
25913;SDS011;13718;50.922;5.346;2022-10-16T06:26:24;4.68;;;3.25;;
25913;SDS011;13718;50.922;5.346;2022-10-16T06:28:53;6.05;;;3.28;;
25913;SDS011;13718;50.922;5.346;2022-10-16T06:31:20;5.15;;;3.08;;
25913;SDS011;13718;50.922;5.346;2022-10-16T06:33:49;8.82;;;3.45;;
25913;SDS011;13718;50.922;5.346;2022-10-16T06:36:16;8.65;;;3.47;;
25913;SDS011;13718;50.922;5.346;2022-10-16T06:38:42;5.45;;;3.03;;
25913;SDS011;13718;50.922;5.346;2022-10-16T06:41:12;6.75;;;3.35;;
25913;SDS011;13718;50.922;5.346;2022-10-16T06:43:40;9.32;;;3.78;;
25913;SDS011;13718;50.922;5.346;2022-10-16T06:46:06;7.18;;;3.33;;
25913;SDS011;13718;50.922;5.346;2022-10-16T06:48:34;6.22;;;3.25;;
25913;SDS011;13718;50.922;5.346;2022-10-16T06:51:00;6.53;;;3.17;;
25913;SDS011;13718;50.922;5.346;2022-10-16T06:53:32;8.00;;;3.85;;
25913;SDS011;13718;50.922;5.346;2022-10-16T06:56:12;7.47;;;3.50;;
25913;SDS011;13718;50.922;5.346;2022-10-16T06:58:40;7.82;;;3.33;;
25913;SDS011;13718;50.922;5.346;2022-10-16T07:01:06;12.40;;;3.60;;
25913;SDS011;13718;50.922;5.346;2022-10-16T07:03:32;8.38;;;4.10;;
25913;SDS011;13718;50.922;5.346;2022-10-16T07:06:01;8.18;;;3.65;;
25913;SDS011;13718;50.922;5.346;2022-10-16T07:08:30;9.27;;;4.00;;
25913;SDS011;13718;50.922;5.346;2022-10-16T07:11:03;6.10;;;3.22;;
25913;SDS011;13718;50.922;5.346;2022-10-16T07:13:33;9.88;;;3.80;;
25913;SDS011;13718;50.922;5.346;2022-10-16T07:16:06;10.60;;;3.42;;
25913;SDS011;13718;50.922;5.346;2022-10-16T07:18:37;7.40;;;3.28;;
25913;SDS011;13718;50.922;5.346;2022-10-16T07:21:05;5.25;;;2.88;;
25913;SDS011;13718;50.922;5.346;2022-10-16T07:23:33;8.00;;;2.80;;
25913;SDS011;13718;50.922;5.346;2022-10-16T07:25:59;5.35;;;2.53;;
25913;SDS011;13718;50.922;5.346;2022-10-16T07:28:24;4.28;;;2.30;;
25913;SDS011;13718;50.922;5.346;2022-10-16T07:30:50;4.68;;;2.30;;
25913;SDS011;13718;50.922;5.346;2022-10-16T07:33:16;4.63;;;2.30;;
25913;SDS011;13718;50.922;5.346;2022-10-16T07:35:50;7.28;;;1.80;;
25913;SDS011;13718;50.922;5.346;2022-10-16T07:38:16;4.47;;;2.00;;
25913;SDS011;13718;50.922;5.346;2022-10-16T07:40:43;3.67;;;1.70;;
25913;SDS011;13718;50.922;5.346;2022-10-16T07:43:09;4.97;;;1.88;;
25913;SDS011;13718;50.922;5.346;2022-10-16T07:45:35;4.32;;;1.55;;
25913;SDS011;13718;50.922;5.346;2022-10-16T07:48:00;4.70;;;1.52;;
25913;SDS011;13718;50.922;5.346;2022-10-16T07:50:26;2.83;;;1.13;;
25913;SDS011;13718;50.922;5.346;2022-10-16T07:52:51;3.58;;;1.25;;
25913;SDS011;13718;50.922;5.346;2022-10-16T07:55:17;6.07;;;1.40;;
25913;SDS011;13718;50.922;5.346;2022-10-16T07:57:43;8.68;;;1.50;;
25913;SDS011;13718;50.922;5.346;2022-10-16T08:00:08;2.55;;;1.20;;
25913;SDS011;13718;50.922;5.346;2022-10-16T08:02:41;3.95;;;1.30;;
25913;SDS011;13718;50.922;5.346;2022-10-16T08:05:07;2.28;;;1.17;;
25913;SDS011;13718;50.922;5.346;2022-10-16T08:07:33;2.85;;;0.95;;
25913;SDS011;13718;50.922;5.346;2022-10-16T08:09:58;3.97;;;1.10;;
25913;SDS011;13718;50.922;5.346;2022-10-16T08:12:25;2.95;;;1.15;;
25913;SDS011;13718;50.922;5.346;2022-10-16T08:14:51;4.35;;;1.15;;
25913;SDS011;13718;50.922;5.346;2022-10-16T08:17:16;3.67;;;1.10;;
25913;SDS011;13718;50.922;5.346;2022-10-16T08:19:45;2.92;;;1.17;;
25913;SDS011;13718;50.922;5.346;2022-10-16T08:22:12;2.75;;;1.00;;
25913;SDS011;13718;50.922;5.346;2022-10-16T08:24:38;2.80;;;1.27;;
25913;SDS011;13718;50.922;5.346;2022-10-16T08:27:04;4.10;;;1.15;;
25913;SDS011;13718;50.922;5.346;2022-10-16T08:29:30;3.88;;;1.52;;
25913;SDS011;13718;50.922;5.346;2022-10-16T08:31:56;2.67;;;1.30;;
25913;SDS011;13718;50.922;5.346;2022-10-16T08:34:21;3.55;;;1.40;;
25913;SDS011;13718;50.922;5.346;2022-10-16T08:36:47;3.55;;;1.30;;
25913;SDS011;13718;50.922;5.346;2022-10-16T08:39:12;4.85;;;1.25;;
25913;SDS011;13718;50.922;5.346;2022-10-16T08:41:56;2.65;;;1.10;;
25913;SDS011;13718;50.922;5.346;2022-10-16T08:47:22;5.90;;;1.20;;
25913;SDS011;13718;50.922;5.346;2022-10-16T08:50:21;4.85;;;1.02;;
25913;SDS011;13718;50.922;5.346;2022-10-16T08:52:52;6.38;;;1.40;;
25913;SDS011;13718;50.922;5.346;2022-10-16T08:56:04;2.67;;;1.10;;
25913;SDS011;13718;50.922;5.346;2022-10-16T09:00:48;4.32;;;1.17;;
25913;SDS011;13718;50.922;5.346;2022-10-16T09:06:40;4.47;;;1.20;;
25913;SDS011;13718;50.922;5.346;2022-10-16T09:19:46;4.10;;;1.05;;
25913;SDS011;13718;50.922;5.346;2022-10-16T09:22:28;2.67;;;0.90;;
25913;SDS011;13718;50.922;5.346;2022-10-16T09:24:59;3.58;;;1.00;;
25913;SDS011;13718;50.922;5.346;2022-10-16T09:27:30;3.67;;;1.10;;
25913;SDS011;13718;50.922;5.346;2022-10-16T09:29:56;2.13;;;0.68;;
25913;SDS011;13718;50.922;5.346;2022-10-16T09:32:21;2.88;;;0.85;;
25913;SDS011;13718;50.922;5.346;2022-10-16T09:34:49;4.47;;;1.08;;
25913;SDS011;13718;50.922;5.346;2022-10-16T09:37:18;6.53;;;1.13;;
25913;SDS011;13718;50.922;5.346;2022-10-16T09:39:50;5.93;;;0.95;;
25913;SDS011;13718;50.922;5.346;2022-10-16T09:42:21;10.55;;;1.38;;
25913;SDS011;13718;50.922;5.346;2022-10-16T09:44:52;2.88;;;0.90;;
25913;SDS011;13718;50.922;5.346;2022-10-16T09:49:55;3.67;;;1.10;;
25913;SDS011;13718;50.922;5.346;2022-10-16T09:52:23;5.82;;;0.90;;
25913;SDS011;13718;50.922;5.346;2022-10-16T09:54:51;9.07;;;1.00;;
25913;SDS011;13718;50.922;5.346;2022-10-16T09:57:18;6.50;;;1.00;;
25913;SDS011;13718;50.922;5.346;2022-10-16T09:59:48;5.18;;;0.82;;
25913;SDS011;13718;50.922;5.346;2022-10-16T10:02:16;7.22;;;1.77;;
25913;SDS011;13718;50.922;5.346;2022-10-16T10:04:47;6.20;;;1.33;;
25913;SDS011;13718;50.922;5.346;2022-10-16T10:07:26;2.88;;;1.00;;
25913;SDS011;13718;50.922;5.346;2022-10-16T10:10:25;3.75;;;0.82;;
25913;SDS011;13718;50.922;5.346;2022-10-16T10:12:53;4.03;;;0.85;;
25913;SDS011;13718;50.922;5.346;2022-10-16T10:15:20;7.40;;;0.88;;
25913;SDS011;13718;50.922;5.346;2022-10-16T10:17:52;4.15;;;1.00;;
25913;SDS011;13718;50.922;5.346;2022-10-16T10:22:59;5.90;;;0.85;;
25913;SDS011;13718;50.922;5.346;2022-10-16T10:25:29;2.90;;;0.68;;
25913;SDS011;13718;50.922;5.346;2022-10-16T10:41:33;2.28;;;0.85;;
25913;SDS011;13718;50.922;5.346;2022-10-16T10:44:05;3.47;;;1.00;;
25913;SDS011;13718;50.922;5.346;2022-10-16T10:46:50;6.32;;;0.77;;
25913;SDS011;13718;50.922;5.346;2022-10-16T10:49:34;4.18;;;1.00;;
25913;SDS011;13718;50.922;5.346;2022-10-16T10:52:29;3.60;;;0.90;;
25913;SDS011;13718;50.922;5.346;2022-10-16T10:55:10;3.28;;;0.90;;
25913;SDS011;13718;50.922;5.346;2022-10-16T10:58:07;5.03;;;0.90;;
25913;SDS011;13718;50.922;5.346;2022-10-16T11:00:47;3.75;;;0.75;;
25913;SDS011;13718;50.922;5.346;2022-10-16T11:06:39;4.05;;;0.70;;
25913;SDS011;13718;50.922;5.346;2022-10-16T11:17:08;5.18;;;0.73;;
25913;SDS011;13718;50.922;5.346;2022-10-16T11:24:47;7.32;;;1.15;;
25913;SDS011;13718;50.922;5.346;2022-10-16T11:27:43;2.15;;;0.77;;
25913;SDS011;13718;50.922;5.346;2022-10-16T11:30:26;3.72;;;0.73;;
25913;SDS011;13718;50.922;5.346;2022-10-16T11:35:48;3.60;;;1.00;;
25913;SDS011;13718;50.922;5.346;2022-10-16T11:38:33;4.63;;;0.75;;
25913;SDS011;13718;50.922;5.346;2022-10-16T11:41:26;4.95;;;1.15;;
25913;SDS011;13718;50.922;5.346;2022-10-16T11:43:56;4.35;;;0.73;;
25913;SDS011;13718;50.922;5.346;2022-10-16T11:46:34;3.67;;;0.57;;
25913;SDS011;13718;50.922;5.346;2022-10-16T11:49:07;5.15;;;0.80;;
25913;SDS011;13718;50.922;5.346;2022-10-16T11:51:45;2.80;;;0.70;;
25913;SDS011;13718;50.922;5.346;2022-10-16T11:56:46;3.50;;;0.70;;
25913;SDS011;13718;50.922;5.346;2022-10-16T12:01:47;5.97;;;0.70;;
25913;SDS011;13718;50.922;5.346;2022-10-16T12:04:36;4.50;;;0.80;;
25913;SDS011;13718;50.922;5.346;2022-10-16T12:07:12;6.05;;;0.75;;
25913;SDS011;13718;50.922;5.346;2022-10-16T12:09:46;7.28;;;0.90;;
25913;SDS011;13718;50.922;5.346;2022-10-16T12:12:28;2.88;;;0.70;;
25913;SDS011;13718;50.922;5.346;2022-10-16T12:15:18;2.00;;;0.50;;
25913;SDS011;13718;50.922;5.346;2022-10-16T12:17:44;3.67;;;0.75;;
25913;SDS011;13718;50.922;5.346;2022-10-16T12:23:20;1.70;;;0.55;;
25913;SDS011;13718;50.922;5.346;2022-10-16T12:30:40;6.15;;;0.60;;
25913;SDS011;13718;50.922;5.346;2022-10-16T12:33:15;4.15;;;0.70;;
25913;SDS011;13718;50.922;5.346;2022-10-16T12:35:51;3.33;;;0.70;;
25913;SDS011;13718;50.922;5.346;2022-10-16T12:38:18;2.28;;;0.80;;
25913;SDS011;13718;50.922;5.346;2022-10-16T12:43:25;2.53;;;0.57;;
25913;SDS011;13718;50.922;5.346;2022-10-16T12:46:20;3.95;;;0.68;;
25913;SDS011;13718;50.922;5.346;2022-10-16T12:51:38;3.28;;;0.57;;
25913;SDS011;13718;50.922;5.346;2022-10-16T12:59:31;5.82;;;0.57;;
25913;SDS011;13718;50.922;5.346;2022-10-16T13:13:12;3.25;;;0.60;;
25913;SDS011;13718;50.922;5.346;2022-10-16T13:21:47;3.58;;;0.60;;
25913;SDS011;13718;50.922;5.346;2022-10-16T13:29:53;1.65;;;0.40;;
25913;SDS011;13718;50.922;5.346;2022-10-16T13:32:25;0.68;;;0.30;;
25913;SDS011;13718;50.922;5.346;2022-10-16T13:34:51;2.05;;;0.60;;
25913;SDS011;13718;50.922;5.346;2022-10-16T13:37:19;2.63;;;0.70;;
25913;SDS011;13718;50.922;5.346;2022-10-16T13:39:49;1.30;;;0.40;;
25913;SDS011;13718;50.922;5.346;2022-10-16T13:42:26;4.85;;;0.60;;
25913;SDS011;13718;50.922;5.346;2022-10-16T13:44:54;4.05;;;0.60;;
25913;SDS011;13718;50.922;5.346;2022-10-16T13:47:21;3.08;;;0.60;;
25913;SDS011;13718;50.922;5.346;2022-10-16T13:52:37;2.92;;;0.57;;
25913;SDS011;13718;50.922;5.346;2022-10-16T13:55:04;4.97;;;0.68;;
25913;SDS011;13718;50.922;5.346;2022-10-16T13:57:48;2.92;;;0.65;;
25913;SDS011;13718;50.922;5.346;2022-10-16T14:00:23;3.17;;;0.50;;
25913;SDS011;13718;50.922;5.346;2022-10-16T14:03:15;2.97;;;0.57;;
25913;SDS011;13718;50.922;5.346;2022-10-16T14:05:48;2.10;;;0.50;;
25913;SDS011;13718;50.922;5.346;2022-10-16T14:08:19;5.53;;;0.95;;
25913;SDS011;13718;50.922;5.346;2022-10-16T14:10:52;2.38;;;0.57;;
25913;SDS011;13718;50.922;5.346;2022-10-16T14:13:23;4.63;;;0.52;;
25913;SDS011;13718;50.922;5.346;2022-10-16T14:15:55;1.73;;;0.40;;
25913;SDS011;13718;50.922;5.346;2022-10-16T14:18:24;3.65;;;0.68;;
25913;SDS011;13718;50.922;5.346;2022-10-16T14:20:52;1.90;;;0.47;;
25913;SDS011;13718;50.922;5.346;2022-10-16T14:28:35;5.10;;;0.77;;
25913;SDS011;13718;50.922;5.346;2022-10-16T14:31:03;3.88;;;0.60;;
25913;SDS011;13718;50.922;5.346;2022-10-16T14:33:52;4.63;;;0.65;;
25913;SDS011;13718;50.922;5.346;2022-10-16T14:36:18;2.13;;;0.63;;
25913;SDS011;13718;50.922;5.346;2022-10-16T14:39:04;2.63;;;0.50;;
25913;SDS011;13718;50.922;5.346;2022-10-16T14:41:44;3.25;;;0.68;;
25913;SDS011;13718;50.922;5.346;2022-10-16T14:44:12;2.45;;;0.60;;
25913;SDS011;13718;50.922;5.346;2022-10-16T14:46:38;4.70;;;0.50;;
25913;SDS011;13718;50.922;5.346;2022-10-16T14:51:35;5.57;;;2.10;;
25913;SDS011;13718;50.922;5.346;2022-10-16T14:54:02;4.25;;;0.70;;
25913;SDS011;13718;50.922;5.346;2022-10-16T14:56:29;3.20;;;0.57;;
25913;SDS011;13718;50.922;5.346;2022-10-16T14:58:58;1.70;;;0.60;;
25913;SDS011;13718;50.922;5.346;2022-10-16T15:01:25;4.50;;;0.80;;
25913;SDS011;13718;50.922;5.346;2022-10-16T15:03:51;2.85;;;0.40;;
25913;SDS011;13718;50.922;5.346;2022-10-16T15:06:19;4.30;;;0.60;;
25913;SDS011;13718;50.922;5.346;2022-10-16T15:08:44;3.30;;;0.60;;
25913;SDS011;13718;50.922;5.346;2022-10-16T15:11:14;1.85;;;0.40;;
25913;SDS011;13718;50.922;5.346;2022-10-16T15:13:44;1.98;;;0.60;;
25913;SDS011;13718;50.922;5.346;2022-10-16T15:16:11;2.80;;;0.70;;
25913;SDS011;13718;50.922;5.346;2022-10-16T15:18:39;2.88;;;0.80;;
25913;SDS011;13718;50.922;5.346;2022-10-16T15:21:04;3.63;;;0.80;;
25913;SDS011;13718;50.922;5.346;2022-10-16T15:23:30;4.13;;;0.80;;
25913;SDS011;13718;50.922;5.346;2022-10-16T15:25:56;3.20;;;0.50;;
25913;SDS011;13718;50.922;5.346;2022-10-16T15:28:22;3.08;;;0.95;;
25913;SDS011;13718;50.922;5.346;2022-10-16T15:30:53;4.43;;;0.90;;
25913;SDS011;13718;50.922;5.346;2022-10-16T15:33:21;2.55;;;1.08;;
25913;SDS011;13718;50.922;5.346;2022-10-16T15:35:52;4.57;;;0.90;;
25913;SDS011;13718;50.922;5.346;2022-10-16T15:38:18;2.25;;;0.77;;
25913;SDS011;13718;50.922;5.346;2022-10-16T15:40:45;6.00;;;1.20;;
25913;SDS011;13718;50.922;5.346;2022-10-16T15:43:12;3.22;;;0.80;;
25913;SDS011;13718;50.922;5.346;2022-10-16T15:45:37;3.15;;;0.90;;
25913;SDS011;13718;50.922;5.346;2022-10-16T15:48:03;3.28;;;1.10;;
25913;SDS011;13718;50.922;5.346;2022-10-16T15:50:29;3.00;;;0.73;;
25913;SDS011;13718;50.922;5.346;2022-10-16T15:52:55;4.20;;;0.73;;
25913;SDS011;13718;50.922;5.346;2022-10-16T15:55:21;1.75;;;0.50;;
25913;SDS011;13718;50.922;5.346;2022-10-16T15:57:47;1.95;;;0.73;;
25913;SDS011;13718;50.922;5.346;2022-10-16T16:00:16;2.13;;;0.60;;
25913;SDS011;13718;50.922;5.346;2022-10-16T16:02:49;2.42;;;0.80;;
25913;SDS011;13718;50.922;5.346;2022-10-16T16:05:16;2.92;;;1.00;;
25913;SDS011;13718;50.922;5.346;2022-10-16T16:07:42;5.28;;;1.10;;
25913;SDS011;13718;50.922;5.346;2022-10-16T16:10:09;4.22;;;1.25;;
25913;SDS011;13718;50.922;5.346;2022-10-16T16:12:35;4.05;;;1.40;;
25913;SDS011;13718;50.922;5.346;2022-10-16T16:15:02;7.63;;;1.40;;
25913;SDS011;13718;50.922;5.346;2022-10-16T16:17:32;7.53;;;1.30;;
25913;SDS011;13718;50.922;5.346;2022-10-16T16:19:58;6.10;;;1.30;;
25913;SDS011;13718;50.922;5.346;2022-10-16T16:22:23;3.25;;;1.10;;
25913;SDS011;13718;50.922;5.346;2022-10-16T16:24:49;5.07;;;1.02;;
25913;SDS011;13718;50.922;5.346;2022-10-16T16:27:15;4.65;;;1.25;;
25913;SDS011;13718;50.922;5.346;2022-10-16T16:29:40;4.80;;;1.00;;
25913;SDS011;13718;50.922;5.346;2022-10-16T16:32:06;4.57;;;1.25;;
25913;SDS011;13718;50.922;5.346;2022-10-16T16:34:32;6.72;;;2.13;;
25913;SDS011;13718;50.922;5.346;2022-10-16T16:36:57;10.90;;;1.92;;
25913;SDS011;13718;50.922;5.346;2022-10-16T16:39:23;6.03;;;2.50;;
25913;SDS011;13718;50.922;5.346;2022-10-16T16:41:49;3.88;;;1.20;;
25913;SDS011;13718;50.922;5.346;2022-10-16T16:44:15;7.32;;;1.60;;
25913;SDS011;13718;50.922;5.346;2022-10-16T16:49:20;30.08;;;9.45;;
25913;SDS011;13718;50.922;5.346;2022-10-16T16:51:46;6.53;;;2.65;;
25913;SDS011;13718;50.922;5.346;2022-10-16T16:54:11;6.97;;;2.47;;
25913;SDS011;13718;50.922;5.346;2022-10-16T16:56:38;6.82;;;2.05;;
25913;SDS011;13718;50.922;5.346;2022-10-16T16:59:10;8.13;;;2.50;;
25913;SDS011;13718;50.922;5.346;2022-10-16T17:01:38;7.37;;;1.70;;
25913;SDS011;13718;50.922;5.346;2022-10-16T17:04:05;5.97;;;1.73;;
25913;SDS011;13718;50.922;5.346;2022-10-16T17:06:31;7.57;;;2.28;;
25913;SDS011;13718;50.922;5.346;2022-10-16T17:08:57;7.07;;;2.50;;
25913;SDS011;13718;50.922;5.346;2022-10-16T17:11:24;10.20;;;3.60;;
25913;SDS011;13718;50.922;5.346;2022-10-16T17:13:51;18.48;;;6.47;;
25913;SDS011;13718;50.922;5.346;2022-10-16T17:16:19;23.10;;;6.72;;
25913;SDS011;13718;50.922;5.346;2022-10-16T17:18:46;29.25;;;7.80;;
25913;SDS011;13718;50.922;5.346;2022-10-16T17:21:12;10.40;;;4.28;;